メインページ
METAR-TAF:

METAR-TAF

空港 :

キング・アブドラアジズ飛行場

ダーラン, サウジアラビア

緯度: 26-16N, 経度: 050-09E, 海抜: 26m

現時点の気象観測

当レポートは1時間5分前の14:00(UTC)に作成
南東の風 5kt
気温 23°C
湿度 38%
気圧 1018 hPa
視程10km以上
1,500メートル以下は雲なし、積乱雲なし

METAR: OEDR 181400Z 14005KT CAVOK 23/08 Q1018 NOSIG

時間: 18:05 (15:05 UTC)

予報

当レポートは5時間35分前の09:30(UTC)に作成
予報は18日の 12時(UTC)から 19日の 18時(UTC)まで有効
変向風 4kt
視程: 7000m
18日の 20時(UTC)から 18日の 22時(UTC)まで徐々に
北/北西の風 8kt
視程10km以上
1,500メートル以下は雲なし、積乱雲なし

TAF: OEDR 180930Z 1812/1918 VRB04KT 7000 NSC BECMG 1820/1822 33008KT CAVOK

4,000以上の空港の気象観測と天気予報(METAR報とTAF報)

利用可能な観測所は地図上に黄色い丸と赤い丸で示す。

丸の上にカーソルを重ねると観測所名を参照できる。

次にクリックすると気象観測と天気予報を参照できる。

マップの切り替え:黒色「×」印の緑ボタンをクリックして拡大、「-」印の緑ボタンをクリックして縮小、緑色の三角印をクリックして隣りの地図に切り替え


METAR-TAF: